Time;durP1;ratioP1;P1;durP2;ratioP2;P2;SDS_P1;SDS_P2;PMS_P1;PMS_P2;Temp;Humidity;BMP_temperature;BMP_pressure;BME280_temperature;BME280_humidity;BME280_pressure;Samples;Min_cycle;Max_cycle;Signal;HPM_P1;HPM_P2
2022/04/02 00:01:39;;;;;;;17.65;10.95;;;;;;;;;;6314458;22;20072;-82
2022/04/02 00:04:06;;;;;;;14.93;10.07;;;;;;;;;;6287465;22;19996;-81
2022/04/02 00:06:33;;;;;;;16.75;9.90;;;;;;;;;;6314798;22;19999;-82
2022/04/02 00:08:59;;;;;;;17.45;9.98;;;;;;;;;;6286991;22;20007;-81
2022/04/02 00:11:25;;;;;;;16.10;9.50;;;;;;;;;;6286431;22;20010;-81
2022/04/02 00:13:51;;;;;;;15.23;10.23;;;;;;;;;;6314848;22;19995;-82
2022/04/02 00:16:17;;;;;;;15.32;9.75;;;;;;;;;;6314104;22;20017;-82
2022/04/02 00:18:43;;;;;;;17.25;10.50;;;;;;;;;;6314321;22;20006;-82
2022/04/02 00:21:10;;;;;;;16.80;10.80;;;;;;;;;;6314063;22;20022;-82
2022/04/02 00:23:36;;;;;;;16.27;10.63;;;;;;;;;;6314231;22;20366;-81
2022/04/02 00:26:02;;;;;;;16.45;9.88;;;;;;;;;;6287335;22;19999;-81
2022/04/02 00:28:29;;;;;;;15.10;9.45;;;;;;;;;;6314255;22;20049;-82
2022/04/02 00:30:55;;;;;;;18.15;10.40;;;;;;;;;;6287015;22;19999;-82
2022/04/02 00:33:21;;;;;;;15.48;9.90;;;;;;;;;;6313878;22;20026;-82
2022/04/02 00:35:47;;;;;;;13.98;8.82;;;;;;;;;;6314093;22;20030;-81
2022/04/02 00:38:13;;;;;;;16.33;9.82;;;;;;;;;;6312892;22;20015;-82
2022/04/02 00:40:42;;;;;;;16.27;9.85;;;;;;;;;;6285224;22;20022;-81
2022/04/02 00:43:20;;;;;;;18.52;10.80;;;;;;;;;;6313957;22;19995;-82
2022/04/02 00:45:46;;;;;;;16.30;9.95;;;;;;;;;;6313390;22;19999;-82
2022/04/02 00:48:12;;;;;;;17.98;10.82;;;;;;;;;;6285104;22;20086;-81
2022/04/02 00:50:38;;;;;;;15.95;9.40;;;;;;;;;;6314362;22;20053;-82
2022/04/02 00:53:04;;;;;;;17.95;10.73;;;;;;;;;;6312257;22;20498;-82
2022/04/02 00:55:31;;;;;;;17.25;10.70;;;;;;;;;;6286569;22;20010;-82
2022/04/02 00:57:57;;;;;;;15.38;8.82;;;;;;;;;;6286025;22;20003;-82
2022/04/02 01:00:23;;;;;;;14.38;9.13;;;;;;;;;;6315399;22;20275;-82
2022/04/02 01:02:49;;;;;;;15.27;9.43;;;;;;;;;;6314290;22;20010;-82
2022/04/02 01:05:15;;;;;;;15.05;9.85;;;;;;;;;;6314370;22;20484;-82
2022/04/02 01:07:41;;;;;;;19.55;10.57;;;;;;;;;;6314242;22;20003;-82
2022/04/02 01:10:07;;;;;;;17.98;10.93;;;;;;;;;;6287889;22;20082;-82
2022/04/02 01:12:33;;;;;;;16.13;9.85;;;;;;;;;;6314362;22;20015;-81
2022/04/02 01:14:59;;;;;;;16.75;9.88;;;;;;;;;;6286817;22;20003;-83
2022/04/02 01:17:25;;;;;;;17.55;10.73;;;;;;;;;;6286324;22;20017;-81
2022/04/02 01:19:53;;;;;;;16.40;10.48;;;;;;;;;;6313728;22;20055;-82
2022/04/02 01:22:19;;;;;;;17.13;11.70;;;;;;;;;;6314349;22;20023;-82
2022/04/02 01:24:45;;;;;;;17.15;10.73;;;;;;;;;;6314124;22;20000;-82
2022/04/02 01:27:11;;;;;;;16.02;10.45;;;;;;;;;;6286154;22;20003;-81
2022/04/02 01:29:37;;;;;;;15.63;11.23;;;;;;;;;;6314121;22;19999;-82
2022/04/02 01:32:03;;;;;;;17.63;10.60;;;;;;;;;;6313322;22;20443;-81
2022/04/02 01:34:31;;;;;;;17.60;10.90;;;;;;;;;;6286204;22;20008;-82
2022/04/02 01:36:57;;;;;;;16.92;10.70;;;;;;;;;;6313264;22;20003;-82
2022/04/02 01:39:23;;;;;;;19.58;11.27;;;;;;;;;;6285724;22;20021;-81
2022/04/02 01:41:49;;;;;;;17.70;10.55;;;;;;;;;;6312856;22;20047;-82
2022/04/02 01:44:15;;;;;;;18.20;10.98;;;;;;;;;;6285596;22;20035;-82
2022/04/02 01:46:41;;;;;;;19.00;11.30;;;;;;;;;;6285927;22;20007;-82
2022/04/02 01:49:07;;;;;;;17.15;10.68;;;;;;;;;;6284702;22;20081;-81
2022/04/02 01:51:33;;;;;;;17.45;11.32;;;;;;;;;;6312325;22;20030;-82
2022/04/02 01:53:59;;;;;;;16.92;11.00;;;;;;;;;;6312458;22;20003;-82
2022/04/02 01:56:25;;;;;;;17.95;10.82;;;;;;;;;;6312298;22;20006;-82
2022/04/02 01:58:51;;;;;;;18.35;10.27;;;;;;;;;;6313739;22;19996;-81
2022/04/02 02:01:17;;;;;;;18.67;11.32;;;;;;;;;;6313912;22;20008;-82
2022/04/02 02:03:44;;;;;;;17.48;10.65;;;;;;;;;;6287761;22;20427;-82
2022/04/02 02:06:11;;;;;;;19.30;10.60;;;;;;;;;;6314351;22;20010;-82
2022/04/02 02:08:38;;;;;;;17.95;10.13;;;;;;;;;;6287443;22;20007;-81
2022/04/02 02:11:04;;;;;;;17.23;10.20;;;;;;;;;;6286453;22;20003;-81
2022/04/02 02:13:30;;;;;;;18.27;11.32;;;;;;;;;;6315009;22;19996;-82
2022/04/02 02:15:56;;;;;;;16.92;9.73;;;;;;;;;;6313838;22;20332;-81
2022/04/02 02:18:22;;;;;;;19.52;11.02;;;;;;;;;;6314264;22;20062;-82
2022/04/02 02:20:48;;;;;;;16.63;10.05;;;;;;;;;;6286381;22;20373;-82
2022/04/02 02:23:14;;;;;;;15.63;9.43;;;;;;;;;;6286530;22;20010;-81
2022/04/02 02:25:40;;;;;;;17.23;10.15;;;;;;;;;;6313615;22;20023;-82
2022/04/02 02:28:06;;;;;;;17.80;10.13;;;;;;;;;;6284806;22;20317;-81
2022/04/02 02:30:32;;;;;;;17.33;10.15;;;;;;;;;;6313967;22;20008;-80
2022/04/02 02:35:49;;;;;;;15.50;9.90;;;;;;;;;;6314024;22;20442;-82
2022/04/02 02:38:15;;;;;;;18.27;10.13;;;;;;;;;;6285599;22;20392;-82
2022/04/02 02:40:41;;;;;;;17.50;10.60;;;;;;;;;;6314038;22;20003;-80
2022/04/02 02:43:08;;;;;;;16.10;10.20;;;;;;;;;;6285988;22;20106;-81
2022/04/02 02:45:35;;;;;;;15.30;9.95;;;;;;;;;;6314227;22;19999;-80
2022/04/02 02:48:01;;;;;;;19.40;10.85;;;;;;;;;;6314228;22;20007;-82
2022/04/02 02:50:28;;;;;;;15.90;9.77;;;;;;;;;;6285804;22;20003;-81
2022/04/02 02:52:54;;;;;;;17.38;10.30;;;;;;;;;;6314366;22;20030;-82
2022/04/02 02:55:20;;;;;;;17.25;10.70;;;;;;;;;;6286349;22;20000;-81
2022/04/02 02:57:47;;;;;;;16.35;9.98;;;;;;;;;;6286215;22;20003;-81
2022/04/02 03:00:14;;;;;;;16.20;10.05;;;;;;;;;;6314810;22;20002;-81
2022/04/02 03:02:40;;;;;;;17.40;10.07;;;;;;;;;;6285328;22;20011;-82
2022/04/02 03:05:10;;;;;;;17.40;9.85;;;;;;;;;;6286518;22;20006;-82
2022/04/02 03:07:37;;;;;;;18.83;10.55;;;;;;;;;;6313919;22;20026;-82
2022/04/02 03:10:04;;;;;;;18.08;10.43;;;;;;;;;;6314611;22;20003;-82
2022/04/02 03:12:29;;;;;;;15.25;9.73;;;;;;;;;;6286635;22;20007;-80
2022/04/02 03:14:56;;;;;;;15.82;9.27;;;;;;;;;;6314904;22;20379;-82
2022/04/02 03:17:22;;;;;;;16.33;9.68;;;;;;;;;;6287310;22;20034;-82
2022/04/02 03:19:48;;;;;;;16.30;10.02;;;;;;;;;;6286950;22;19999;-82
2022/04/02 03:22:14;;;;;;;16.48;9.65;;;;;;;;;;6287241;22;20385;-81
2022/04/02 03:24:40;;;;;;;15.85;9.95;;;;;;;;;;6287026;22;19999;-81
2022/04/02 03:27:06;;;;;;;15.27;9.55;;;;;;;;;;6314756;22;20007;-82
2022/04/02 03:29:32;;;;;;;15.30;8.75;;;;;;;;;;6287147;22;20007;-82
2022/04/02 03:31:58;;;;;;;16.23;8.95;;;;;;;;;;6287293;22;20496;-82
2022/04/02 03:34:24;;;;;;;16.05;10.07;;;;;;;;;;6315117;22;20003;-81
2022/04/02 03:36:50;;;;;;;14.15;8.93;;;;;;;;;;6314701;22;19999;-81
2022/04/02 03:39:16;;;;;;;15.75;9.52;;;;;;;;;;6314783;22;20006;-81
2022/04/02 03:41:42;;;;;;;16.00;8.98;;;;;;;;;;6314440;22;20068;-82
2022/04/02 03:44:08;;;;;;;16.88;9.93;;;;;;;;;;6285587;22;20046;-81
2022/04/02 03:49:20;;;;;;;14.60;9.32;;;;;;;;;;6315382;22;20037;-83
2022/04/02 03:51:46;;;;;;;17.10;9.88;;;;;;;;;;6314296;22;20311;-81
2022/04/02 03:54:12;;;;;;;16.10;10.55;;;;;;;;;;6286524;22;20003;-82
2022/04/02 03:56:38;;;;;;;14.88;9.65;;;;;;;;;;6315353;22;20343;-82
2022/04/02 03:59:06;;;;;;;16.52;9.93;;;;;;;;;;6313906;22;19995;-83
2022/04/02 04:01:32;;;;;;;16.75;8.65;;;;;;;;;;6314222;22;20031;-81
2022/04/02 04:03:58;;;;;;;15.82;8.93;;;;;;;;;;6287677;22;20000;-82
2022/04/02 04:06:25;;;;;;;17.92;9.50;;;;;;;;;;6287404;22;20019;-81
2022/04/02 04:08:52;;;;;;;15.18;9.85;;;;;;;;;;6287950;22;20061;-81
2022/04/02 04:11:18;;;;;;;15.32;10.27;;;;;;;;;;6315026;22;19995;-82
2022/04/02 04:13:44;;;;;;;15.80;9.15;;;;;;;;;;6317774;22;20011;-82
2022/04/02 04:16:10;;;;;;;15.40;9.60;;;;;;;;;;6294123;22;20013;-82
2022/04/02 04:18:36;;;;;;;15.38;9.73;;;;;;;;;;6297782;22;20398;-79
2022/04/02 04:21:02;;;;;;;15.27;8.90;;;;;;;;;;6324262;22;20022;-82
2022/04/02 04:23:28;;;;;;;16.40;9.38;;;;;;;;;;6286567;22;20010;-83
2022/04/02 04:25:54;;;;;;;16.63;10.30;;;;;;;;;;6287336;22;20003;-80
2022/04/02 04:28:20;;;;;;;16.40;10.40;;;;;;;;;;6286011;22;20004;-81
2022/04/02 04:30:48;;;;;;;16.60;9.60;;;;;;;;;;6286751;22;19999;-82
2022/04/02 04:33:15;;;;;;;18.23;10.88;;;;;;;;;;6286930;22;20003;-82
2022/04/02 04:35:41;;;;;;;15.13;9.07;;;;;;;;;;6286667;22;20498;-82
2022/04/02 04:38:07;;;;;;;16.73;9.52;;;;;;;;;;6313128;22;20006;-82
2022/04/02 04:40:33;;;;;;;15.70;10.10;;;;;;;;;;6313801;22;20078;-82
2022/04/02 04:42:59;;;;;;;17.08;10.40;;;;;;;;;;6286213;22;20003;-82
2022/04/02 04:45:25;;;;;;;17.20;9.25;;;;;;;;;;6313718;22;20047;-82
2022/04/02 04:47:51;;;;;;;17.83;9.70;;;;;;;;;;6313023;22;19999;-82
2022/04/02 04:50:19;;;;;;;16.58;10.48;;;;;;;;;;6285630;22;20003;-81
2022/04/02 04:52:45;;;;;;;16.45;9.57;;;;;;;;;;6285818;22;20003;-82
2022/04/02 04:55:11;;;;;;;17.30;11.23;;;;;;;;;;6285386;22;20003;-82
2022/04/02 04:57:37;;;;;;;16.17;9.93;;;;;;;;;;6312999;22;19999;-82
2022/04/02 05:00:06;;;;;;;15.45;10.23;;;;;;;;;;6311503;22;20383;-81
2022/04/02 05:02:32;;;;;;;17.17;9.77;;;;;;;;;;6311313;22;20475;-80
2022/04/02 05:04:58;;;;;;;15.30;9.45;;;;;;;;;;6285693;22;20006;-82
2022/04/02 05:07:25;;;;;;;14.88;9.80;;;;;;;;;;6284170;22;20082;-81
2022/04/02 05:09:51;;;;;;;16.75;9.55;;;;;;;;;;6312197;22;20067;-82
2022/04/02 05:12:17;;;;;;;14.95;9.60;;;;;;;;;;6319398;22;19999;-80
2022/04/02 05:14:43;;;;;;;16.13;9.82;;;;;;;;;;6302989;22;20018;-80
2022/04/02 05:17:09;;;;;;;14.30;9.77;;;;;;;;;;6329286;22;20014;-81
2022/04/02 05:19:36;;;;;;;17.85;10.27;;;;;;;;;;6301971;22;20007;-81
2022/04/02 05:22:02;;;;;;;15.90;9.18;;;;;;;;;;6302969;22;19999;-81
2022/04/02 05:24:28;;;;;;;17.73;10.45;;;;;;;;;;6288753;22;20011;-83
2022/04/02 05:26:55;;;;;;;16.80;10.13;;;;;;;;;;6287403;22;20003;-82
2022/04/02 05:29:21;;;;;;;15.77;9.43;;;;;;;;;;6287692;22;20347;-83
2022/04/02 05:31:48;;;;;;;17.20;9.93;;;;;;;;;;6286614;22;20003;-82
2022/04/02 05:34:14;;;;;;;16.38;9.98;;;;;;;;;;6288271;22;20343;-82
2022/04/02 05:36:43;;;;;;;16.77;10.50;;;;;;;;;;6315799;22;20098;-81
2022/04/02 05:39:09;;;;;;;17.75;9.30;;;;;;;;;;6316669;22;20002;-81
2022/04/02 05:41:37;;;;;;;16.05;10.50;;;;;;;;;;6316093;22;19995;-82
2022/04/02 05:44:03;;;;;;;15.43;9.25;;;;;;;;;;6287846;22;19999;-82
2022/04/02 05:46:29;;;;;;;14.57;10.02;;;;;;;;;;6296161;22;20025;-80
2022/04/02 05:48:55;;;;;;;14.38;9.43;;;;;;;;;;6302432;22;19999;-80
2022/04/02 05:51:21;;;;;;;16.23;9.70;;;;;;;;;;6301496;22;19999;-82
2022/04/02 05:53:47;;;;;;;17.40;10.32;;;;;;;;;;6299475;22;20003;-81
2022/04/02 05:56:13;;;;;;;15.32;9.82;;;;;;;;;;6315163;22;20052;-80
2022/04/02 05:58:39;;;;;;;15.75;9.05;;;;;;;;;;6314840;22;20043;-82
2022/04/02 06:01:06;;;;;;;17.35;9.95;;;;;;;;;;6315679;22;20011;-81
2022/04/02 06:03:34;;;;;;;16.55;10.43;;;;;;;;;;6289232;22;20010;-81
2022/04/02 06:06:00;;;;;;;15.68;9.80;;;;;;;;;;6315079;22;19999;-81
2022/04/02 06:08:26;;;;;;;15.75;10.15;;;;;;;;;;6315334;22;20003;-81
2022/04/02 06:10:52;;;;;;;16.48;10.50;;;;;;;;;;6287483;22;20014;-81
2022/04/02 06:13:18;;;;;;;13.23;9.27;;;;;;;;;;6288713;22;20003;-82
2022/04/02 06:15:44;;;;;;;18.33;9.35;;;;;;;;;;6314062;22;20462;-81
2022/04/02 06:18:11;;;;;;;18.67;10.50;;;;;;;;;;6314596;22;19999;-82
2022/04/02 06:20:37;;;;;;;16.90;9.80;;;;;;;;;;6316052;22;20371;-82
2022/04/02 06:23:03;;;;;;;15.65;9.82;;;;;;;;;;6288739;22;20454;-81
2022/04/02 06:25:29;;;;;;;15.23;9.85;;;;;;;;;;6314018;22;19995;-81
2022/04/02 06:27:55;;;;;;;16.52;9.90;;;;;;;;;;6316958;22;20003;-82
2022/04/02 06:30:22;;;;;;;16.13;9.45;;;;;;;;;;6287536;22;20335;-81
2022/04/02 06:32:48;;;;;;;16.05;10.27;;;;;;;;;;6290625;22;20010;-81
2022/04/02 06:35:14;;;;;;;17.13;10.05;;;;;;;;;;6318391;22;20039;-83
2022/04/02 06:37:47;;;;;;;15.98;10.18;;;;;;;;;;6315853;22;20003;-80
2022/04/02 06:43:18;;;;;;;;;;;;;;;;;;6316694;22;20010;-81
2022/04/02 06:45:44;;;;;;;20.88;10.18;;;;;;;;;;6288205;22;19978;-80
2022/04/02 06:48:10;;;;;;;17.90;9.77;;;;;;;;;;6316350;22;20000;-82
2022/04/02 06:50:36;;;;;;;15.68;9.25;;;;;;;;;;6316485;22;20006;-81
2022/04/02 06:53:03;;;;;;;14.40;9.55;;;;;;;;;;6287677;22;20003;-81
2022/04/02 06:55:30;;;;;;;15.52;9.27;;;;;;;;;;6288145;22;20007;-80
2022/04/02 06:57:59;;;;;;;17.88;9.90;;;;;;;;;;6315964;22;20003;-82
2022/04/02 07:00:25;;;;;;;14.00;9.57;;;;;;;;;;6314572;22;19995;-81
2022/04/02 07:02:51;;;;;;;14.60;9.38;;;;;;;;;;6287251;22;20042;-81
2022/04/02 07:05:21;;;;;;;17.70;10.25;;;;;;;;;;6286498;22;20351;-80
2022/04/02 07:07:49;;;;;;;15.93;10.00;;;;;;;;;;6314837;22;20003;-80
2022/04/02 07:10:15;;;;;;;15.48;9.85;;;;;;;;;;6286326;22;20003;-80
2022/04/02 07:12:41;;;;;;;14.85;10.25;;;;;;;;;;6315090;22;20025;-80
2022/04/02 07:15:08;;;;;;;16.08;9.00;;;;;;;;;;6315069;22;20335;-81
2022/04/02 07:17:34;;;;;;;16.58;9.80;;;;;;;;;;6314184;22;20003;-80
2022/04/02 07:20:01;;;;;;;18.20;10.80;;;;;;;;;;6287585;22;20003;-80
2022/04/02 07:22:28;;;;;;;14.10;9.48;;;;;;;;;;6287734;22;20060;-82
2022/04/02 07:24:55;;;;;;;15.10;9.68;;;;;;;;;;6314778;22;20044;-80
2022/04/02 07:27:23;;;;;;;16.77;10.02;;;;;;;;;;6286452;22;20010;-81
2022/04/02 07:29:56;;;;;;;15.85;9.80;;;;;;;;;;6286698;22;20469;-82
2022/04/02 07:32:22;;;;;;;17.05;9.35;;;;;;;;;;6286814;22;19999;-81
2022/04/02 07:34:49;;;;;;;17.35;9.85;;;;;;;;;;6285764;22;20007;-80
2022/04/02 07:37:15;;;;;;;16.70;9.80;;;;;;;;;;6313293;22;19995;-81
2022/04/02 07:39:56;;;;;;;18.45;10.32;;;;;;;;;;6314006;22;20091;-81
2022/04/02 07:42:23;;;;;;;15.50;9.23;;;;;;;;;;6312959;22;19996;-81
2022/04/02 07:45:02;;;;;;;19.45;10.77;;;;;;;;;;6285905;22;20348;-81
2022/04/02 07:47:33;;;;;;;15.50;9.52;;;;;;;;;;6314041;22;20082;-80
2022/04/02 07:50:05;;;;;;;17.58;9.63;;;;;;;;;;6313275;22;20003;-82
2022/04/02 07:52:31;;;;;;;19.92;10.35;;;;;;;;;;6313785;22;20338;-81
2022/04/02 07:54:58;;;;;;;17.38;9.88;;;;;;;;;;6283573;22;20010;-80
2022/04/02 07:57:27;;;;;;;15.93;10.57;;;;;;;;;;6312387;22;20393;-82
2022/04/02 08:00:00;;;;;;;17.70;10.57;;;;;;;;;;6285509;22;20087;-80
2022/04/02 08:02:36;;;;;;;16.15;10.38;;;;;;;;;;6284780;22;20443;-80
2022/04/02 08:05:03;;;;;;;14.50;9.07;;;;;;;;;;6284018;22;20006;-80
2022/04/02 08:07:30;;;;;;;17.25;9.60;;;;;;;;;;6312390;22;20011;-81
2022/04/02 08:09:57;;;;;;;15.65;9.65;;;;;;;;;;6312496;22;20081;-80
2022/04/02 08:12:24;;;;;;;16.35;9.65;;;;;;;;;;6316491;22;20076;-80
2022/04/02 08:14:51;;;;;;;20.17;10.25;;;;;;;;;;6291744;22;20036;-79
2022/04/02 08:17:17;;;;;;;15.48;9.00;;;;;;;;;;6294605;22;20066;-79
2022/04/02 08:19:44;;;;;;;16.67;9.55;;;;;;;;;;6314748;22;20048;-80
2022/04/02 08:22:10;;;;;;;15.55;10.18;;;;;;;;;;6314445;22;19996;-79
2022/04/02 08:24:38;;;;;;;16.15;10.23;;;;;;;;;;6284685;22;20014;-80
2022/04/02 08:27:06;;;;;;;17.83;10.82;;;;;;;;;;6284456;22;20603;-79
2022/04/02 08:29:44;;;;;;;18.35;10.52;;;;;;;;;;6314406;22;19999;-79
2022/04/02 08:32:28;;;;;;;17.15;10.73;;;;;;;;;;6285169;22;20008;-81
2022/04/02 08:35:05;;;;;;;16.08;8.98;;;;;;;;;;6314051;22;20320;-83
2022/04/02 08:37:38;;;;;;;14.90;8.85;;;;;;;;;;6289346;22;20466;-81
2022/04/02 08:40:22;;;;;;;15.75;9.15;;;;;;;;;;6315277;22;20025;-82
2022/04/02 08:43:01;;;;;;;15.60;9.23;;;;;;;;;;6290428;22;20033;-82
2022/04/02 08:45:28;;;;;;;17.48;9.68;;;;;;;;;;6312615;22;20015;-81
2022/04/02 08:47:54;;;;;;;16.17;9.75;;;;;;;;;;6309016;22;20011;-81
2022/04/02 08:50:28;;;;;;;16.75;9.25;;;;;;;;;;6310963;22;20320;-81
2022/04/02 08:52:58;;;;;;;21.58;11.35;;;;;;;;;;6286494;22;20038;-81
2022/04/02 08:55:37;;;;;;;14.43;8.88;;;;;;;;;;6311800;22;20533;-81
2022/04/02 08:58:03;;;;;;;16.50;9.95;;;;;;;;;;6315629;22;20009;-80
2022/04/02 09:00:35;;;;;;;21.67;11.10;;;;;;;;;;6316487;22;20023;-81
2022/04/02 09:03:27;;;;;;;14.65;8.50;;;;;;;;;;6282180;22;20011;-82
2022/04/02 09:06:12;;;;;;;17.98;9.75;;;;;;;;;;6278914;22;20007;-81
2022/04/02 09:08:56;;;;;;;13.90;9.50;;;;;;;;;;6287605;22;20030;-81
2022/04/02 09:11:23;;;;;;;13.45;8.30;;;;;;;;;;6288354;22;20004;-82
2022/04/02 09:13:51;;;;;;;13.85;8.48;;;;;;;;;;6285995;22;20310;-82
2022/04/02 09:16:26;;;;;;;12.63;9.13;;;;;;;;;;6289439;22;20007;-82
2022/04/02 09:18:55;;;;;;;13.80;8.63;;;;;;;;;;6290282;22;19996;-82
2022/04/02 09:21:39;;;;;;;18.83;10.40;;;;;;;;;;6295840;22;20007;-81
2022/04/02 09:24:08;;;;;;;15.00;8.15;;;;;;;;;;6294985;22;20382;-80
2022/04/02 09:26:54;;;;;;;12.23;8.20;;;;;;;;;;6291528;22;20038;-82
2022/04/02 09:29:27;;;;;;;12.52;6.90;;;;;;;;;;6280924;22;20007;-80
2022/04/02 09:31:53;;;;;;;11.68;8.10;;;;;;;;;;6284995;22;20322;-82
2022/04/02 09:34:38;;;;;;;17.10;9.30;;;;;;;;;;6283694;22;20087;-81
2022/04/02 09:37:09;;;;;;;13.80;8.30;;;;;;;;;;6283903;22;20003;-81
2022/04/02 09:39:51;;;;;;;13.32;8.48;;;;;;;;;;6286252;22;20011;-80
2022/04/02 09:42:26;;;;;;;15.63;8.50;;;;;;;;;;6288036;22;20000;-80
2022/04/02 09:44:59;;;;;;;13.82;8.70;;;;;;;;;;6282493;22;20023;-81
2022/04/02 09:47:31;;;;;;;14.45;9.48;;;;;;;;;;6285844;22;20010;-81
2022/04/02 09:50:11;;;;;;;15.85;8.98;;;;;;;;;;6284481;22;19999;-80
2022/04/02 09:52:38;;;;;;;14.98;9.07;;;;;;;;;;6287424;22;20052;-80
2022/04/02 09:55:07;;;;;;;16.63;9.55;;;;;;;;;;6287471;22;20019;-82
2022/04/02 09:57:46;;;;;;;15.10;9.90;;;;;;;;;;6287367;22;20000;-82
2022/04/02 10:00:22;;;;;;;14.93;9.77;;;;;;;;;;6284770;22;20000;-80
2022/04/02 10:02:57;;;;;;;13.18;9.25;;;;;;;;;;6308267;22;20347;-81
2022/04/02 10:05:24;;;;;;;15.40;8.75;;;;;;;;;;6284973;22;20006;-82
2022/04/02 10:07:53;;;;;;;14.73;9.10;;;;;;;;;;6293126;22;20014;-81
2022/04/02 10:10:25;;;;;;;14.50;9.05;;;;;;;;;;6317853;22;19999;-81
2022/04/02 10:12:54;;;;;;;16.85;9.43;;;;;;;;;;6292934;22;20333;-81
2022/04/02 10:15:22;;;;;;;16.85;9.85;;;;;;;;;;6289998;22;20094;-82
2022/04/02 10:17:52;;;;;;;13.65;9.63;;;;;;;;;;6296567;22;20023;-81
2022/04/02 10:20:23;;;;;;;15.50;10.43;;;;;;;;;;6318035;22;19999;-82
2022/04/02 10:22:56;;;;;;;18.40;11.32;;;;;;;;;;6290408;22;20030;-81
2022/04/02 10:25:26;;;;;;;17.15;10.73;;;;;;;;;;6321667;22;20057;-81
2022/04/02 10:27:53;;;;;;;15.13;10.05;;;;;;;;;;6290078;22;20034;-82
2022/04/02 10:30:19;;;;;;;15.20;9.88;;;;;;;;;;6316999;22;20056;-81
2022/04/02 10:35:50;;;;;;;17.05;9.65;;;;;;;;;;6317691;22;20064;-82
2022/04/02 10:38:27;;;;;;;15.57;9.70;;;;;;;;;;6292639;22;19999;-81
2022/04/02 10:40:53;;;;;;;16.48;10.30;;;;;;;;;;6319311;22;20015;-81
2022/04/02 10:43:26;;;;;;;14.77;9.38;;;;;;;;;;6289603;22;20001;-80
2022/04/02 10:45:52;;;;;;;14.60;9.95;;;;;;;;;;6315386;22;19999;-81
2022/04/02 10:48:21;;;;;;;15.30;9.65;;;;;;;;;;6318100;22;19999;-81
2022/04/02 10:50:49;;;;;;;16.88;10.18;;;;;;;;;;6316432;22;20007;-81
2022/04/02 10:53:17;;;;;;;15.10;9.60;;;;;;;;;;6316975;22;19999;-81
2022/04/02 10:55:48;;;;;;;12.95;9.38;;;;;;;;;;6317534;22;20391;-83
2022/04/02 10:58:14;;;;;;;15.20;9.82;;;;;;;;;;6317007;22;20003;-83
2022/04/02 11:00:47;;;;;;;14.52;9.48;;;;;;;;;;6315977;22;20042;-82
2022/04/02 11:03:20;;;;;;;14.60;9.82;;;;;;;;;;6287981;22;20011;-83
2022/04/02 11:05:46;;;;;;;13.80;9.52;;;;;;;;;;6315629;22;20122;-82
2022/04/02 11:08:12;;;;;;;12.77;9.52;;;;;;;;;;6316088;22;20000;-82
2022/04/02 11:10:39;;;;;;;14.43;9.88;;;;;;;;;;6290469;22;20546;-83
2022/04/02 11:13:07;;;;;;;13.70;9.38;;;;;;;;;;6294343;22;20033;-82
2022/04/02 11:15:39;;;;;;;15.73;9.95;;;;;;;;;;6290205;22;20003;-83
2022/04/02 11:18:15;;;;;;;17.27;10.10;;;;;;;;;;6292909;22;20062;-83
2022/04/02 11:20:42;;;;;;;16.77;10.07;;;;;;;;;;6319813;22;20047;-81
2022/04/02 11:23:17;;;;;;;14.48;9.95;;;;;;;;;;6321892;22;19995;-81
2022/04/02 11:25:51;;;;;;;15.27;10.60;;;;;;;;;;6316174;22;20076;-81
2022/04/02 11:28:18;;;;;;;14.90;10.05;;;;;;;;;;6315227;22;20026;-82
2022/04/02 11:30:45;;;;;;;17.60;11.35;;;;;;;;;;6313050;22;20002;-81
2022/04/02 11:33:14;;;;;;;18.20;13.20;;;;;;;;;;6285639;22;20466;-82
2022/04/02 11:35:44;;;;;;;16.90;11.52;;;;;;;;;;6309696;22;20113;-82
2022/04/02 11:38:20;;;;;;;14.80;11.05;;;;;;;;;;6309614;22;19999;-82
2022/04/02 11:41:04;;;;;;;16.98;10.82;;;;;;;;;;6311042;22;19995;-81
2022/04/02 11:43:32;;;;;;;17.02;10.82;;;;;;;;;;6283000;22;19999;-82
2022/04/02 11:45:59;;;;;;;13.80;10.30;;;;;;;;;;6282727;22;20004;-81
2022/04/02 11:48:29;;;;;;;14.40;10.18;;;;;;;;;;6312742;22;19999;-80
2022/04/02 11:50:55;;;;;;;13.70;9.73;;;;;;;;;;6285417;22;20403;-81
2022/04/02 11:53:31;;;;;;;17.80;11.02;;;;;;;;;;6310865;22;20444;-81
2022/04/02 11:55:59;;;;;;;15.00;11.40;;;;;;;;;;6311473;22;20391;-81
2022/04/02 11:58:26;;;;;;;16.88;10.95;;;;;;;;;;6283120;22;20343;-81
2022/04/02 12:00:57;;;;;;;15.55;10.05;;;;;;;;;;6282598;22;20004;-81
2022/04/02 12:03:24;;;;;;;14.85;10.02;;;;;;;;;;6282707;22;20030;-81
2022/04/02 12:05:51;;;;;;;15.35;10.63;;;;;;;;;;6284320;22;19999;-80
2022/04/02 12:08:30;;;;;;;15.32;12.05;;;;;;;;;;6283297;22;20003;-80
2022/04/02 12:10:57;;;;;;;16.02;11.15;;;;;;;;;;6310545;22;20047;-80
2022/04/02 12:13:23;;;;;;;14.77;10.82;;;;;;;;;;6283671;22;20067;-81
2022/04/02 12:16:01;;;;;;;19.13;10.60;;;;;;;;;;6318617;22;19999;-82
2022/04/02 12:18:28;;;;;;;14.88;10.60;;;;;;;;;;6331807;22;20006;-81
2022/04/02 12:21:02;;;;;;;13.82;10.32;;;;;;;;;;6305428;22;20011;-82
2022/04/02 12:23:28;;;;;;;18.63;11.43;;;;;;;;;;6335293;22;19983;-80
2022/04/02 12:25:55;;;;;;;14.82;11.23;;;;;;;;;;6334594;22;20010;-82
2022/04/02 12:28:22;;;;;;;20.08;12.18;;;;;;;;;;6294191;22;20370;-81
2022/04/02 12:30:49;;;;;;;16.25;11.18;;;;;;;;;;6312695;22;19999;-81
2022/04/02 12:33:17;;;;;;;14.15;10.30;;;;;;;;;;6312271;22;20055;-81
2022/04/02 12:36:08;;;;;;;14.77;10.73;;;;;;;;;;6309973;22;19999;-81
2022/04/02 12:38:35;;;;;;;16.23;11.20;;;;;;;;;;6311336;22;20011;-81
2022/04/02 12:41:02;;;;;;;17.08;12.05;;;;;;;;;;6311034;22;19996;-81
2022/04/02 12:43:28;;;;;;;15.48;11.50;;;;;;;;;;6310096;22;19999;-81
2022/04/02 12:45:54;;;;;;;16.15;11.60;;;;;;;;;;6310892;22;20055;-81
2022/04/02 12:48:21;;;;;;;15.68;11.65;;;;;;;;;;6282624;22;20367;-82
2022/04/02 12:50:58;;;;;;;15.50;11.30;;;;;;;;;;6291976;22;20003;-82
2022/04/02 12:53:33;;;;;;;19.67;12.45;;;;;;;;;;6333100;22;19999;-82
2022/04/02 12:56:00;;;;;;;18.45;11.48;;;;;;;;;;6333208;22;19994;-82
2022/04/02 12:58:46;;;;;;;17.92;12.57;;;;;;;;;;6330357;22;20019;-82
2022/04/02 13:01:13;;;;;;;17.00;10.48;;;;;;;;;;6286156;22;20351;-81
2022/04/02 13:03:48;;;;;;;16.80;11.35;;;;;;;;;;6283991;22;20018;-81
2022/04/02 13:06:19;;;;;;;16.85;11.68;;;;;;;;;;6311133;22;20014;-82
2022/04/02 13:08:54;;;;;;;17.50;11.52;;;;;;;;;;6282838;22;20339;-82
2022/04/02 13:11:38;;;;;;;16.17;11.38;;;;;;;;;;6310748;22;19996;-82
2022/04/02 13:14:13;;;;;;;14.23;10.27;;;;;;;;;;6313341;22;20058;-82
2022/04/02 13:16:40;;;;;;;17.02;11.52;;;;;;;;;;6283839;22;19999;-82
2022/04/02 13:21:59;;;;;;;16.23;11.35;;;;;;;;;;6308552;22;20347;-82
2022/04/02 13:24:25;;;;;;;14.35;10.57;;;;;;;;;;6284252;22;20173;-82
2022/04/02 13:27:03;;;;;;;19.05;12.35;;;;;;;;;;6282692;22;20003;-81
2022/04/02 13:29:41;;;;;;;17.13;12.25;;;;;;;;;;6282935;22;20506;-82
2022/04/02 13:32:21;;;;;;;17.25;11.23;;;;;;;;;;6309658;22;20324;-82
2022/04/02 13:34:53;;;;;;;15.55;12.05;;;;;;;;;;6309581;22;20030;-82
2022/04/02 13:37:38;;;;;;;18.65;12.10;;;;;;;;;;6310238;22;20051;-81
2022/04/02 13:40:05;;;;;;;15.98;10.75;;;;;;;;;;6282262;22;20060;-82
2022/04/02 13:42:47;;;;;;;17.25;11.35;;;;;;;;;;6310356;22;20000;-82
2022/04/02 13:45:16;;;;;;;19.80;11.43;;;;;;;;;;6283753;22;20008;-82
2022/04/02 13:47:43;;;;;;;18.70;11.65;;;;;;;;;;6283123;22;20056;-82
2022/04/02 13:50:12;;;;;;;17.02;11.43;;;;;;;;;;6310481;22;20023;-82
2022/04/02 13:52:46;;;;;;;15.82;11.65;;;;;;;;;;6282647;22;20079;-81
2022/04/02 13:55:16;;;;;;;18.33;11.88;;;;;;;;;;6310676;22;19995;-83
2022/04/02 13:57:43;;;;;;;18.48;13.10;;;;;;;;;;6284270;22;20007;-82
2022/04/02 14:00:10;;;;;;;17.58;11.40;;;;;;;;;;6310798;22;20541;-82
2022/04/02 14:02:38;;;;;;;18.13;11.73;;;;;;;;;;6311515;22;20047;-81
2022/04/02 14:05:08;;;;;;;19.00;11.32;;;;;;;;;;6283943;22;20374;-81
2022/04/02 14:07:36;;;;;;;19.10;12.48;;;;;;;;;;6284933;22;20050;-81
2022/04/02 14:10:08;;;;;;;20.38;12.25;;;;;;;;;;6284362;22;20003;-81
2022/04/02 14:12:38;;;;;;;18.92;12.02;;;;;;;;;;6284984;22;20447;-82
2022/04/02 14:15:09;;;;;;;18.88;11.85;;;;;;;;;;6312121;22;20014;-81
2022/04/02 14:17:39;;;;;;;19.30;12.05;;;;;;;;;;6312131;22;20039;-81
2022/04/02 14:20:06;;;;;;;17.08;11.05;;;;;;;;;;6283992;22;19999;-83
2022/04/02 14:22:37;;;;;;;20.35;12.18;;;;;;;;;;6284696;22;19999;-82
2022/04/02 14:25:09;;;;;;;21.63;12.88;;;;;;;;;;6286379;22;20022;-82
2022/04/02 14:27:38;;;;;;;20.15;12.73;;;;;;;;;;6288639;22;20007;-81
2022/04/02 14:30:31;;;;;;;18.13;12.68;;;;;;;;;;6289194;22;20003;-81
2022/04/02 14:33:10;;;;;;;19.75;12.43;;;;;;;;;;6306252;22;20003;-81
2022/04/02 14:35:55;;;;;;;18.77;12.25;;;;;;;;;;6284648;22;20443;-81
2022/04/02 14:38:33;;;;;;;18.90;12.02;;;;;;;;;;6284253;22;20010;-81
2022/04/02 14:41:14;;;;;;;17.48;12.32;;;;;;;;;;6311130;22;20064;-82
2022/04/02 14:43:58;;;;;;;21.25;13.27;;;;;;;;;;6311877;22;20431;-82
2022/04/02 14:46:34;;;;;;;18.30;12.13;;;;;;;;;;6284443;22;20181;-82
2022/04/02 14:49:18;;;;;;;18.98;11.93;;;;;;;;;;6311296;22;20007;-82